createdAt,value
2023-03-29T04:15:09.924Z,-4.18
2023-03-29T04:17:42.032Z,-3.35
2023-03-29T04:20:24.490Z,-3.06
2023-03-29T04:22:56.137Z,-3.07
2023-03-29T04:25:25.019Z,-3.21
2023-03-29T04:28:30.794Z,-3.36
2023-03-29T04:31:13.772Z,-3.51
2023-03-29T04:40:26.634Z,-2.97
2023-03-29T04:43:08.242Z,-3.05
2023-03-29T04:45:38.395Z,-3.08
2023-03-29T04:48:13.922Z,-3.27
2023-03-29T04:50:48.444Z,-3.35
2023-03-29T04:53:18.048Z,-3.46
2023-03-29T04:55:47.470Z,-3.24
2023-03-29T04:58:25.250Z,-2.82
2023-03-29T05:00:58.405Z,-2.93
2023-03-29T05:03:45.384Z,-3.01
2023-03-29T05:06:19.365Z,-3.08
2023-03-29T05:08:48.747Z,-3.17
2023-03-29T05:11:27.994Z,-3.21
2023-03-29T05:14:00.911Z,-3.05
2023-03-29T05:16:30.508Z,-2.58
2023-03-29T05:18:59.669Z,-2.69
2023-03-29T05:21:30.958Z,-2.82
2023-03-29T05:24:01.247Z,-2.86
2023-03-29T05:26:52.619Z,-2.99
2023-03-29T05:29:23.720Z,-3.10
2023-03-29T05:31:59.893Z,-3.11
2023-03-29T05:34:30.201Z,-2.65
2023-03-29T05:37:01.743Z,-2.55
2023-03-29T05:39:35.725Z,-2.42
2023-03-29T05:42:06.590Z,-2.60
2023-03-29T05:44:46.958Z,-2.84
2023-03-29T05:47:19.520Z,-2.86
2023-03-29T05:49:47.962Z,-2.96
2023-03-29T05:52:24.171Z,-2.64
2023-03-29T05:54:53.052Z,-2.43
2023-03-29T05:57:22.336Z,-2.45
2023-03-29T05:59:51.044Z,-2.50
2023-03-29T06:02:20.252Z,-2.55
2023-03-29T06:04:52.664Z,-2.71
2023-03-29T06:07:39.112Z,-2.90
2023-03-29T06:10:26.334Z,-2.88
2023-03-29T06:13:01.061Z,-2.43
2023-03-29T06:15:32.141Z,-2.31
2023-03-29T06:18:06.259Z,-2.40
2023-03-29T06:20:38.382Z,-2.57
2023-03-29T06:23:11.576Z,-2.73
2023-03-29T06:25:40.698Z,-2.77
2023-03-29T06:28:10.173Z,-2.74
2023-03-29T06:30:39.582Z,-2.57
2023-03-29T06:33:09.944Z,-2.38
2023-03-29T06:35:49.747Z,-2.22
2023-03-29T06:38:26.890Z,-2.32
2023-03-29T06:41:28.898Z,-2.36
2023-03-29T06:44:10.585Z,-2.64
2023-03-29T06:46:50.265Z,-2.58
2023-03-29T06:49:19.118Z,-2.28
2023-03-29T06:52:00.295Z,-1.94
2023-03-29T06:54:28.685Z,-1.92
2023-03-29T06:57:08.114Z,-2.18
2023-03-29T06:59:38.337Z,-2.30
2023-03-29T07:02:20.650Z,-2.63
2023-03-29T07:05:01.730Z,-2.55
2023-03-29T07:07:53.645Z,-2.39
2023-03-29T07:10:39.883Z,-2.00
2023-03-29T07:13:30.747Z,-1.82
2023-03-29T07:16:00.215Z,-1.95
2023-03-29T07:18:55.376Z,-2.17
2023-03-29T07:21:42.778Z,-2.16
2023-03-29T07:24:13.310Z,-2.19
2023-03-29T07:26:52.250Z,-2.48
2023-03-29T07:29:29.619Z,-2.43
2023-03-29T07:31:58.525Z,-2.02
2023-03-29T07:34:49.523Z,-1.78
2023-03-29T07:37:25.510Z,-1.88
2023-03-29T07:39:54.165Z,-1.75
2023-03-29T07:42:39.753Z,-1.93
2023-03-29T07:45:10.588Z,-2.08
2023-03-29T07:47:49.143Z,-2.09
2023-03-29T07:50:18.430Z,-2.16
2023-03-29T07:52:49.365Z,-2.07
2023-03-29T07:55:17.915Z,-1.89
2023-03-29T07:58:09.645Z,-1.40
2023-03-29T08:00:38.722Z,-1.34
2023-03-29T08:03:39.922Z,-1.52
2023-03-29T08:06:08.980Z,-1.70
2023-03-29T08:08:38.771Z,-1.64
2023-03-29T08:11:12.797Z,-1.70
2023-03-29T08:14:13.239Z,-1.88
2023-03-29T08:16:58.049Z,-1.84
2023-03-29T08:19:27.699Z,-1.64
2023-03-29T08:22:05.808Z,-1.74
2023-03-29T08:25:10.303Z,-1.91
2023-03-29T08:27:43.544Z,-2.21
2023-03-29T08:30:15.663Z,-2.08
2023-03-29T08:32:49.968Z,-1.79
2023-03-29T08:35:20.492Z,-1.43
2023-03-29T08:38:12.774Z,-1.44
2023-03-29T08:40:42.023Z,-1.42
2023-03-29T08:43:24.688Z,-1.46
2023-03-29T08:46:18.469Z,-1.98
2023-03-29T08:48:51.155Z,-1.96
2023-03-29T08:51:36.834Z,-1.90
2023-03-29T08:54:08.284Z,-1.71
2023-03-29T08:56:49.990Z,-1.56
2023-03-29T08:59:28.441Z,-1.56
2023-03-29T09:01:58.478Z,-1.62
2023-03-29T09:04:35.721Z,-1.67
2023-03-29T09:07:20.246Z,-1.78
2023-03-29T09:09:48.924Z,-1.80
2023-03-29T09:12:52.351Z,-1.93
2023-03-29T09:15:28.764Z,-2.13
2023-03-29T09:18:13.841Z,-2.07
2023-03-29T09:21:11.632Z,-1.79
2023-03-29T09:23:48.467Z,-1.58
2023-03-29T09:26:31.644Z,-1.71
2023-03-29T09:29:38.715Z,-1.82
2023-03-29T09:32:23.416Z,-1.75
2023-03-29T09:35:18.823Z,-1.82
2023-03-29T09:37:48.766Z,-1.85
2023-03-29T09:40:41.688Z,-1.82
2023-03-29T09:43:18.556Z,-1.32
2023-03-29T09:45:51.783Z,-1.13
2023-03-29T09:48:20.094Z,-1.05
2023-03-29T09:50:53.184Z,-1.70
2023-03-29T09:53:22.079Z,-1.79
2023-03-29T09:56:00.107Z,-1.76
2023-03-29T09:58:46.692Z,-1.78
2023-03-29T10:01:17.781Z,-1.80
2023-03-29T10:03:52.548Z,-1.73
2023-03-29T10:06:23.456Z,-1.79
2023-03-29T10:08:57.972Z,-1.68
2023-03-29T10:11:38.170Z,-1.71
2023-03-29T10:14:33.829Z,-1.72
2023-03-29T10:17:06.427Z,-1.74
2023-03-29T10:19:35.835Z,-1.78
2023-03-29T10:22:18.932Z,-1.33
2023-03-29T10:24:52.418Z,-1.20
2023-03-29T10:27:28.236Z,-1.54
2023-03-29T10:30:00.648Z,-2.10
2023-03-29T10:32:34.565Z,-2.08
2023-03-29T10:35:11.073Z,-1.93
2023-03-29T10:37:44.956Z,-1.84
2023-03-29T10:40:27.738Z,-1.75
2023-03-29T10:42:59.185Z,-1.62
2023-03-29T10:45:32.090Z,-1.49
2023-03-29T10:48:00.683Z,-1.38
2023-03-29T10:50:38.453Z,-1.64
2023-03-29T10:53:20.442Z,-1.47
2023-03-29T10:55:55.170Z,-1.40
2023-03-29T10:58:55.698Z,-1.15
2023-03-29T11:01:30.284Z,-0.81
2023-03-29T11:04:02.485Z,-0.89
2023-03-29T11:07:27.508Z,-0.87
2023-03-29T11:10:05.405Z,-0.88
2023-03-29T11:12:58.665Z,-1.06
2023-03-29T11:16:02.879Z,-1.22
2023-03-29T11:19:10.478Z,-1.28
2023-03-29T11:22:01.113Z,-1.43
2023-03-29T11:25:10.822Z,-1.33
2023-03-29T11:27:45.344Z,-1.20
2023-03-29T11:30:57.407Z,-1.38
2023-03-29T11:33:33.979Z,-1.37
2023-03-29T11:36:12.997Z,-1.31
2023-03-29T11:38:54.121Z,-1.45
2023-03-29T11:41:27.219Z,-1.44
2023-03-29T11:44:11.869Z,-1.37
2023-03-29T11:46:48.392Z,-1.38
2023-03-29T11:49:19.874Z,-1.44
2023-03-29T11:51:57.902Z,-1.51
2023-03-29T11:54:36.716Z,-1.53
2023-03-29T11:57:29.941Z,-1.60
2023-03-29T12:00:06.181Z,-1.74
2023-03-29T12:02:46.945Z,-1.67
2023-03-29T12:05:33.236Z,-1.22
2023-03-29T12:08:16.683Z,-1.11
2023-03-29T12:10:46.855Z,-1.06
2023-03-29T12:13:15.441Z,-1.15
2023-03-29T12:15:53.247Z,-1.23
2023-03-29T12:18:33.809Z,-1.26
2023-03-29T12:21:04.188Z,-1.32
2023-03-29T12:23:35.276Z,-1.44
2023-03-29T12:26:35.288Z,-1.70
2023-03-29T12:29:26.718Z,-1.78
2023-03-29T12:32:30.038Z,-1.87
2023-03-29T12:35:31.295Z,-1.71
2023-03-29T12:38:19.707Z,-1.47
2023-03-29T12:41:22.080Z,-1.26
2023-03-29T12:44:13.736Z,-1.36
2023-03-29T12:46:55.395Z,-1.49
2023-03-29T12:49:36.400Z,-1.53
2023-03-29T12:52:16.296Z,-1.58
2023-03-29T12:54:56.472Z,-1.44
2023-03-29T12:57:41.657Z,-1.59
2023-03-29T13:00:13.661Z,-1.59
2023-03-29T13:02:46.105Z,-1.58
2023-03-29T13:05:29.521Z,-1.43
2023-03-29T13:07:58.400Z,-1.75
2023-03-29T13:10:38.557Z,-1.76
2023-03-29T13:13:24.221Z,-1.65
2023-03-29T13:15:53.075Z,-1.25
2023-03-29T13:19:04.322Z,-1.02
2023-03-29T13:21:33.443Z,-0.70
2023-03-29T13:24:31.590Z,-1.01
2023-03-29T13:27:06.440Z,-1.09
2023-03-29T13:29:53.735Z,-0.99
2023-03-29T13:32:46.583Z,-1.09
2023-03-29T13:35:21.524Z,-1.30
2023-03-29T13:38:09.253Z,-1.31
2023-03-29T13:40:42.244Z,-1.37
2023-03-29T13:43:21.471Z,-1.26
2023-03-29T13:45:59.348Z,-1.34
2023-03-29T13:48:33.764Z,-1.32
2023-03-29T13:51:08.356Z,-1.34
2023-03-29T13:53:40.083Z,-1.33
2023-03-29T13:56:12.256Z,-1.37
2023-03-29T13:58:51.683Z,-1.33
2023-03-29T14:01:33.160Z,-1.28
2023-03-29T14:04:02.001Z,-1.23
2023-03-29T14:06:32.987Z,-1.21
2023-03-29T14:09:05.238Z,-1.30
2023-03-29T14:11:35.288Z,-1.39
2023-03-29T14:14:08.681Z,-1.30
2023-03-29T14:16:39.109Z,-1.27
2023-03-29T14:19:40.556Z,-1.34
2023-03-29T14:22:11.287Z,-1.28
2023-03-29T14:24:48.377Z,-1.30
2023-03-29T14:27:17.053Z,-1.34
2023-03-29T14:29:47.824Z,-1.31
2023-03-29T14:32:18.216Z,-1.32
2023-03-29T14:34:50.268Z,-1.39
2023-03-29T14:37:24.018Z,-1.33
2023-03-29T14:39:52.360Z,-1.28
2023-03-29T14:42:24.731Z,-1.25
2023-03-29T14:44:58.257Z,-1.28
2023-03-29T14:47:28.702Z,-1.16
2023-03-29T14:50:00.934Z,-1.20
2023-03-29T14:52:32.075Z,-1.26
2023-03-29T14:55:02.180Z,-1.18
2023-03-29T14:57:35.884Z,-1.20
2023-03-29T15:00:19.329Z,-1.18
2023-03-29T15:02:51.218Z,-1.13
2023-03-29T15:05:40.563Z,-1.15
2023-03-29T15:08:34.017Z,-1.11
2023-03-29T15:11:23.546Z,-1.07
2023-03-29T15:13:54.546Z,-1.09
2023-03-29T15:16:23.605Z,-1.03
2023-03-29T15:18:52.824Z,-0.99
2023-03-29T15:21:21.617Z,-0.93
2023-03-29T15:23:57.305Z,-0.93
2023-03-29T15:26:31.277Z,-1.00
2023-03-29T15:29:15.131Z,-0.98
2023-03-29T15:31:46.576Z,-1.02
2023-03-29T15:34:33.889Z,-1.00
2023-03-29T15:37:04.457Z,-1.02
2023-03-29T15:39:35.291Z,-1.01
2023-03-29T15:42:03.833Z,-0.96
2023-03-29T15:44:33.655Z,-1.00
2023-03-29T15:47:02.393Z,-0.93
2023-03-29T15:49:30.913Z,-0.92
2023-03-29T15:51:59.956Z,-0.94
2023-03-29T15:54:32.501Z,-0.95
2023-03-29T15:57:03.946Z,-0.92
2023-03-29T15:59:34.074Z,-0.90
2023-03-29T16:02:03.694Z,-0.93
2023-03-29T16:04:32.655Z,-0.95
2023-03-29T16:07:02.569Z,-0.93
2023-03-29T16:09:31.656Z,-0.98
2023-03-29T16:12:03.109Z,-0.98
2023-03-29T16:14:34.028Z,-0.98
2023-03-29T16:17:03.438Z,-0.96
2023-03-29T16:19:32.444Z,-1.01
2023-03-29T16:22:02.566Z,-1.06
2023-03-29T16:24:32.369Z,-1.06
2023-03-29T16:27:02.051Z,-1.11
2023-03-29T16:29:31.130Z,-1.09
2023-03-29T16:32:00.380Z,-1.11
2023-03-29T16:34:30.294Z,-1.15
2023-03-29T16:36:58.969Z,-1.16
2023-03-29T16:39:29.601Z,-1.17
2023-03-29T16:41:58.296Z,-1.21
2023-03-29T16:44:28.301Z,-1.23
2023-03-29T16:46:59.660Z,-1.24
2023-03-29T16:49:28.793Z,-1.27
2023-03-29T16:52:01.954Z,-1.31
2023-03-29T16:54:32.976Z,-1.32
2023-03-29T16:57:02.098Z,-1.36
2023-03-29T16:59:31.700Z,-1.40
2023-03-29T17:02:00.777Z,-1.44
2023-03-29T17:04:29.536Z,-1.48
2023-03-29T17:06:58.764Z,-1.52
2023-03-29T17:09:29.877Z,-1.55
2023-03-29T17:11:58.911Z,-1.58
2023-03-29T17:14:27.805Z,-1.61
2023-03-29T17:16:58.943Z,-1.63
2023-03-29T17:19:28.035Z,-1.65
2023-03-29T17:21:57.219Z,-1.68
2023-03-29T17:24:29.999Z,-1.69
2023-03-29T17:26:58.815Z,-1.72
2023-03-29T17:29:27.575Z,-1.74
2023-03-29T17:31:56.437Z,-1.75
2023-03-29T17:34:27.423Z,-1.75
2023-03-29T17:36:56.603Z,-1.76
2023-03-29T17:39:27.546Z,-1.77
2023-03-29T17:41:56.135Z,-1.79
2023-03-29T17:44:27.269Z,-1.80
2023-03-29T17:46:55.786Z,-1.16
2023-03-29T17:49:24.750Z,-0.16
2023-03-29T17:51:53.845Z,0.20
2023-03-29T17:54:22.623Z,0.13
2023-03-29T17:56:51.893Z,-0.07
2023-03-29T17:59:21.633Z,-0.30
2023-03-29T18:01:52.306Z,-0.51
2023-03-29T18:04:21.463Z,-0.73
2023-03-29T18:06:50.200Z,-0.91
2023-03-29T18:09:26.683Z,-1.10
2023-03-29T18:11:57.042Z,-1.28
2023-03-29T18:14:26.353Z,-1.45
2023-03-29T18:16:59.602Z,-1.61
2023-03-29T18:19:29.761Z,-1.77
2023-03-29T18:21:58.337Z,-1.93
2023-03-29T18:24:27.738Z,-2.05
2023-03-29T18:26:56.331Z,-2.15
2023-03-29T18:29:25.829Z,-2.26
2023-03-29T18:31:54.571Z,-2.36
2023-03-29T18:34:23.718Z,-2.47
2023-03-29T18:36:54.036Z,-2.59
2023-03-29T18:39:23.027Z,-2.68
2023-03-29T18:41:52.434Z,-2.75
2023-03-29T18:44:22.278Z,-2.83
2023-03-29T18:46:50.933Z,-2.91
2023-03-29T18:49:19.723Z,-2.99
2023-03-29T18:51:50.053Z,-3.05
2023-03-29T18:54:18.736Z,-3.12
2023-03-29T18:56:47.987Z,-3.13
2023-03-29T18:59:19.070Z,-2.49
2023-03-29T19:01:48.013Z,-1.55
2023-03-29T19:04:16.647Z,-1.28
2023-03-29T19:06:46.464Z,-1.39
2023-03-29T19:09:15.139Z,-1.60
2023-03-29T19:11:44.052Z,-1.84
2023-03-29T19:14:15.892Z,-2.09
2023-03-29T19:16:44.482Z,-2.31
2023-03-29T19:19:13.379Z,-2.50
2023-03-29T19:21:44.509Z,-2.66
2023-03-29T19:24:13.704Z,-2.80
2023-03-29T19:26:42.802Z,-2.95
2023-03-29T19:29:11.894Z,-3.08
2023-03-29T19:31:40.649Z,-3.15
2023-03-29T19:34:12.548Z,-3.19
2023-03-29T19:36:41.331Z,-3.22
2023-03-29T19:39:10.117Z,-3.28
2023-03-29T19:41:40.039Z,-3.43
2023-03-29T19:44:10.558Z,-3.53
2023-03-29T19:46:41.223Z,-3.60
2023-03-29T19:49:13.968Z,-3.62
2023-03-29T19:51:44.089Z,-3.66
2023-03-29T19:54:13.696Z,-3.67
2023-03-29T19:56:43.263Z,-3.18
2023-03-29T19:59:15.140Z,-2.13
2023-03-29T20:01:51.335Z,-1.70
2023-03-29T20:04:21.183Z,-1.77
2023-03-29T20:06:49.818Z,-2.02
2023-03-29T20:09:18.909Z,-2.25
2023-03-29T20:11:48.722Z,-2.47
2023-03-29T20:14:17.719Z,-2.70
2023-03-29T20:16:46.900Z,-2.93
2023-03-29T20:19:18.166Z,-3.11
2023-03-29T20:21:46.845Z,-3.28
2023-03-29T20:24:17.076Z,-3.41
2023-03-29T20:26:45.770Z,-3.52
2023-03-29T20:29:17.935Z,-3.65
2023-03-29T20:31:47.366Z,-3.75
2023-03-29T20:34:18.366Z,-3.86
2023-03-29T20:36:47.228Z,-3.96
2023-03-29T20:39:19.085Z,-4.05
2023-03-29T20:41:48.042Z,-4.14
2023-03-29T20:44:19.808Z,-4.20
2023-03-29T20:54:05.600Z,-2.49
2023-03-29T20:56:40.076Z,-2.76
2023-03-29T20:59:13.615Z,-3.00
2023-03-29T21:01:42.692Z,-3.24
2023-03-29T21:04:11.808Z,-3.45
2023-03-29T21:06:41.726Z,-3.65
2023-03-29T21:09:10.605Z,-3.83
2023-03-29T21:11:41.757Z,-3.97
2023-03-29T21:14:11.464Z,-4.12
2023-03-29T21:16:44.040Z,-4.22
2023-03-29T21:19:15.186Z,-4.32
2023-03-29T21:21:45.069Z,-4.41
2023-03-29T21:24:14.186Z,-4.48
2023-03-29T21:26:43.903Z,-4.52
2023-03-29T21:29:12.893Z,-3.93
2023-03-29T21:31:42.129Z,-2.99
2023-03-29T21:34:10.891Z,-2.71
2023-03-29T21:36:40.988Z,-2.77
2023-03-29T21:39:09.675Z,-2.97
2023-03-29T21:41:38.366Z,-3.21
2023-03-29T21:44:09.607Z,-3.45
2023-03-29T21:46:39.701Z,-3.65
2023-03-29T21:49:08.517Z,-3.84
2023-03-29T21:51:37.721Z,-4.01
2023-03-29T21:54:06.707Z,-4.15
2023-03-29T21:56:35.808Z,-4.28
2023-03-29T21:59:04.532Z,-4.40
2023-03-29T22:01:33.330Z,-4.52
2023-03-29T22:04:02.065Z,-4.61
2023-03-29T22:06:31.261Z,-4.66
2023-03-29T22:09:01.079Z,-4.68
2023-03-29T22:11:29.870Z,-4.08
2023-03-29T22:13:58.879Z,-3.15
2023-03-29T22:16:28.527Z,-2.88
2023-03-29T22:18:58.270Z,-2.99
2023-03-29T22:21:31.673Z,-3.22
2023-03-29T22:24:01.581Z,-3.49
2023-03-29T22:26:31.580Z,-3.71
2023-03-29T22:29:03.048Z,-3.94
2023-03-29T22:31:32.696Z,-4.12
2023-03-29T22:34:03.184Z,-4.29
2023-03-29T22:36:32.178Z,-4.42
2023-03-29T22:39:01.001Z,-4.57
2023-03-29T22:41:29.852Z,-4.67
2023-03-29T22:43:59.878Z,-4.76
2023-03-29T22:46:30.778Z,-4.82
2023-03-29T22:49:00.521Z,-4.29
2023-03-29T22:51:31.970Z,-3.47
2023-03-29T22:54:00.860Z,-3.28
2023-03-29T22:56:29.644Z,-3.41
2023-03-29T22:58:59.162Z,-3.63
2023-03-29T23:01:27.793Z,-3.87
2023-03-29T23:03:57.062Z,-4.10
2023-03-29T23:06:25.823Z,-4.30
2023-03-29T23:08:54.410Z,-4.44
2023-03-29T23:11:28.930Z,-4.59
2023-03-29T23:13:57.720Z,-4.71
2023-03-29T23:16:26.944Z,-4.83
2023-03-29T23:18:55.819Z,-4.94
2023-03-29T23:21:25.632Z,-5.03
2023-03-29T23:23:54.790Z,-4.96
2023-03-29T23:26:23.600Z,-4.18
2023-03-29T23:28:54.762Z,-3.58
2023-03-29T23:31:24.599Z,-3.53
2023-03-29T23:33:53.965Z,-3.72
2023-03-29T23:36:23.271Z,-3.94
2023-03-29T23:38:52.864Z,-4.18
2023-03-29T23:41:21.345Z,-4.39
2023-03-29T23:43:54.035Z,-4.59
2023-03-29T23:46:22.831Z,-4.73
2023-03-29T23:48:51.599Z,-4.83
2023-03-29T23:51:23.682Z,-4.92
2023-03-29T23:53:52.864Z,-5.02
2023-03-29T23:56:29.325Z,-5.14
2023-03-29T23:58:58.214Z,-5.20
